createdAt,value
2018-07-12T00:00:25.355Z,18.30
2018-07-12T00:02:51.946Z,18.50
2018-07-12T00:05:18.566Z,18.40
2018-07-12T00:07:45.118Z,18.00
2018-07-12T00:10:11.669Z,18.00
2018-07-12T00:12:38.170Z,18.20
2018-07-12T00:15:04.718Z,18.20
2018-07-12T00:17:31.198Z,18.00
2018-07-12T00:19:57.719Z,17.80
2018-07-12T00:22:24.213Z,17.80
2018-07-12T00:24:50.744Z,17.90
2018-07-12T00:27:17.229Z,17.90
2018-07-12T00:29:43.744Z,18.10
2018-07-12T00:32:10.232Z,18.10
2018-07-12T00:34:36.773Z,17.90
2018-07-12T00:37:03.255Z,18.00
2018-07-12T00:39:29.813Z,18.10
2018-07-12T00:44:23.290Z,18.10
2018-07-12T00:46:49.799Z,18.30
2018-07-12T00:49:16.306Z,18.50
2018-07-12T00:51:42.897Z,18.40
2018-07-12T00:54:09.394Z,18.30
2018-07-12T00:56:35.969Z,18.40
2018-07-12T01:03:56.701Z,18.50
2018-07-12T01:06:23.206Z,18.50
2018-07-12T01:08:49.699Z,18.40
2018-07-12T01:11:16.230Z,18.60
2018-07-12T01:13:42.723Z,18.50
2018-07-12T01:16:09.269Z,18.60
2018-07-12T01:21:02.741Z,18.60
2018-07-12T01:23:29.499Z,18.70
2018-07-12T01:28:23.065Z,18.50
2018-07-12T01:30:49.587Z,18.40
2018-07-12T01:33:16.081Z,18.40
2018-07-12T01:35:42.678Z,18.40
2018-07-12T01:38:09.154Z,18.40
2018-07-12T01:40:35.836Z,18.50
2018-07-12T01:43:02.329Z,18.50
2018-07-12T01:45:28.849Z,18.30
2018-07-12T01:47:55.370Z,18.20
2018-07-12T01:52:48.826Z,18.20
2018-07-12T01:55:15.300Z,18.30
2018-07-12T01:57:43.712Z,18.40
2018-07-12T02:00:10.450Z,18.50
2018-07-12T02:02:37.004Z,18.40
2018-07-12T02:05:03.516Z,18.30
2018-07-12T02:07:30.062Z,18.30
2018-07-12T02:09:56.541Z,18.30
2018-07-12T02:14:50.022Z,18.30
2018-07-12T02:17:16.596Z,18.20
2018-07-12T02:19:43.090Z,18.30
2018-07-12T02:24:36.609Z,18.30
2018-07-12T02:27:03.187Z,18.30
2018-07-12T02:29:29.670Z,18.30
2018-07-12T02:31:56.207Z,18.30
2018-07-12T02:34:22.728Z,18.40
2018-07-12T02:36:49.267Z,18.40
2018-07-12T02:39:15.821Z,18.20
2018-07-12T02:41:42.652Z,18.10
2018-07-12T02:44:09.217Z,18.10
2018-07-12T02:46:35.774Z,18.00
2018-07-12T02:53:56.479Z,18.00
2018-07-12T02:56:23.020Z,18.10
2018-07-12T02:58:49.557Z,18.20
2018-07-12T03:01:16.036Z,18.20
2018-07-12T03:03:42.561Z,18.20
2018-07-12T03:08:36.034Z,18.20
2018-07-12T03:13:29.702Z,18.20
2018-07-12T03:15:56.238Z,18.10
2018-07-12T03:23:16.702Z,18.20
2018-07-12T03:25:43.235Z,18.20
2018-07-12T03:28:09.771Z,18.10
2018-07-12T03:30:36.266Z,18.10
2018-07-12T03:33:02.909Z,18.10
2018-07-12T03:37:56.430Z,18.00
2018-07-12T03:40:22.912Z,18.10
2018-07-12T03:42:49.453Z,18.10
2018-07-12T03:45:16.097Z,18.10
2018-07-12T03:50:09.821Z,18.10
2018-07-12T03:52:36.348Z,18.00
2018-07-12T03:55:02.832Z,18.00
2018-07-12T03:57:29.383Z,18.00
2018-07-12T04:04:49.805Z,18.10
2018-07-12T04:07:16.339Z,18.20
2018-07-12T04:09:42.831Z,18.20
2018-07-12T04:12:09.353Z,18.10
2018-07-12T04:14:35.838Z,18.00
2018-07-12T04:17:02.370Z,18.00
2018-07-12T04:19:28.860Z,18.10
2018-07-12T04:21:55.385Z,18.10
2018-07-12T04:24:21.916Z,18.10
2018-07-12T04:26:48.465Z,18.20
2018-07-12T04:29:14.949Z,18.10
2018-07-12T04:31:41.496Z,18.10
2018-07-12T04:34:07.984Z,18.20
2018-07-12T04:36:34.477Z,18.20
2018-07-12T04:39:01.012Z,18.20
2018-07-12T04:41:27.493Z,18.20
2018-07-12T04:43:54.001Z,18.10
2018-07-12T04:46:20.494Z,18.10
2018-07-12T04:51:14.266Z,18.20
2018-07-12T04:53:40.786Z,18.10
2018-07-12T04:56:07.332Z,18.10
2018-07-12T04:58:33.851Z,18.20
2018-07-12T05:01:00.372Z,18.20
2018-07-12T05:03:26.869Z,18.10
2018-07-12T05:08:20.433Z,18.20
2018-07-12T05:10:46.965Z,18.30
2018-07-12T05:13:13.445Z,18.20
2018-07-12T05:15:39.988Z,18.10
2018-07-12T05:18:06.496Z,18.10
2018-07-12T05:20:33.107Z,18.00
2018-07-12T05:22:59.669Z,18.10
2018-07-12T05:25:26.170Z,18.10
2018-07-12T05:27:52.723Z,18.00
2018-07-12T05:32:46.333Z,17.90
2018-07-12T05:35:12.816Z,18.00
2018-07-12T05:37:40.321Z,18.10
2018-07-12T05:40:07.869Z,18.10
2018-07-12T05:42:35.341Z,18.10
2018-07-12T05:45:02.963Z,18.20
2018-07-12T05:47:30.469Z,18.20
2018-07-12T05:52:25.558Z,18.10
2018-07-12T05:54:53.108Z,18.10
2018-07-12T05:57:20.791Z,18.00
2018-07-12T05:59:48.523Z,18.10
2018-07-12T06:02:18.745Z,18.10
2018-07-12T06:04:46.670Z,18.20
2018-07-12T06:07:18.845Z,18.30
2018-07-12T06:09:46.812Z,18.30
2018-07-12T06:12:14.542Z,18.40
2018-07-12T06:14:42.074Z,18.30
2018-07-12T06:17:09.646Z,18.40
2018-07-12T06:19:37.190Z,18.50
2018-07-12T06:22:04.898Z,18.60
2018-07-12T06:24:32.494Z,18.60
2018-07-12T06:27:00.172Z,18.50
2018-07-12T06:29:27.768Z,18.50
2018-07-12T06:34:22.930Z,18.60
2018-07-12T06:36:50.585Z,18.70
2018-07-12T06:39:18.271Z,18.80
2018-07-12T06:41:45.815Z,18.70
2018-07-12T06:44:13.360Z,18.80
2018-07-12T06:46:40.943Z,19.00
2018-07-12T06:49:08.505Z,19.20
2018-07-12T06:51:36.121Z,19.20
2018-07-12T06:54:03.761Z,19.20
2018-07-12T06:58:58.904Z,19.00
2018-07-12T07:01:26.493Z,19.00
2018-07-12T07:03:54.256Z,19.10
2018-07-12T07:06:21.873Z,19.20
2018-07-12T07:11:17.056Z,19.20
2018-07-12T07:13:44.661Z,19.20
2018-07-12T07:16:12.370Z,19.40
2018-07-12T07:18:39.924Z,19.40
2018-07-12T07:21:07.517Z,19.50
2018-07-12T07:26:02.697Z,19.70
2018-07-12T07:28:30.294Z,19.80
2018-07-12T07:30:57.973Z,19.80
2018-07-12T07:38:20.630Z,19.70
2018-07-12T07:40:48.166Z,19.70
2018-07-12T07:43:15.785Z,19.70
2018-07-12T07:45:43.334Z,19.90
2018-07-12T07:48:10.919Z,19.90
2018-07-12T07:50:38.448Z,19.90
2018-07-12T07:53:06.048Z,20.00
2018-07-12T07:55:33.604Z,20.00
2018-07-12T07:58:01.206Z,20.00
2018-07-12T08:00:28.754Z,20.10
2018-07-12T08:02:56.367Z,20.20
2018-07-12T08:05:23.929Z,20.30
2018-07-12T08:07:52.146Z,20.30
2018-07-12T08:10:19.844Z,20.20
2018-07-12T08:12:47.397Z,20.20
2018-07-12T08:17:42.982Z,20.30
2018-07-12T08:20:10.523Z,20.40
2018-07-12T08:22:38.098Z,20.40
2018-07-12T08:25:05.752Z,20.30
2018-07-12T08:27:33.349Z,20.30
2018-07-12T08:30:01.008Z,20.40
2018-07-12T08:34:56.102Z,20.30
2018-07-12T08:37:23.760Z,20.40
2018-07-12T08:39:51.388Z,20.60
2018-07-12T08:42:19.003Z,20.70
2018-07-12T08:47:14.180Z,21.00
2018-07-12T08:49:41.864Z,21.10
2018-07-12T08:52:09.462Z,20.90
2018-07-12T08:57:04.729Z,20.90
2018-07-12T08:59:32.309Z,21.20
2018-07-12T09:01:59.898Z,21.30
2018-07-12T09:09:22.553Z,21.30
2018-07-12T09:11:54.822Z,21.40
2018-07-12T09:16:50.172Z,21.30
2018-07-12T09:21:45.325Z,21.20
2018-07-12T09:24:12.913Z,21.40
2018-07-12T09:26:40.469Z,21.50
2018-07-12T09:29:08.397Z,21.60
2018-07-12T09:31:35.995Z,21.70
2018-07-12T09:34:03.600Z,21.60
2018-07-12T09:36:31.271Z,21.70
2018-07-12T09:38:58.829Z,21.80
2018-07-12T09:41:26.436Z,21.80
2018-07-12T09:43:54.006Z,21.90
2018-07-12T09:46:21.630Z,22.00
2018-07-12T09:48:50.337Z,22.00
2018-07-12T09:51:17.889Z,22.00
2018-07-12T09:53:46.441Z,22.10
2018-07-12T09:56:14.962Z,22.10
2018-07-12T09:58:43.182Z,22.20
2018-07-12T10:01:16.551Z,22.20
2018-07-12T10:03:53.084Z,22.10
2018-07-12T10:06:31.386Z,22.20
2018-07-12T10:09:04.708Z,22.40
2018-07-12T10:11:37.968Z,22.30
2018-07-12T10:14:11.434Z,22.40
2018-07-12T10:16:44.384Z,22.60
2018-07-12T10:19:11.974Z,22.60
2018-07-12T10:24:07.156Z,22.50
2018-07-12T10:26:34.725Z,22.60
2018-07-12T10:29:02.349Z,22.70
2018-07-12T10:31:29.923Z,22.80
2018-07-12T10:33:57.515Z,22.90
2018-07-12T10:36:25.074Z,23.00
2018-07-12T10:38:52.768Z,23.10
2018-07-12T10:41:20.350Z,22.90
2018-07-12T10:43:47.960Z,22.90
2018-07-12T10:46:16.073Z,23.00
2018-07-12T10:48:43.656Z,22.90
2018-07-12T10:51:11.245Z,23.00
2018-07-12T10:53:38.807Z,23.00
2018-07-12T10:56:06.443Z,23.10
2018-07-12T10:58:34.060Z,23.10
2018-07-12T11:01:01.614Z,23.30
2018-07-12T11:03:29.242Z,23.30
2018-07-12T11:05:56.846Z,23.30
2018-07-12T11:08:24.416Z,23.30
2018-07-12T11:10:52.014Z,23.30
2018-07-12T11:13:29.926Z,23.50
2018-07-12T11:15:57.442Z,23.60
2018-07-12T11:18:25.105Z,23.60
2018-07-12T11:20:52.648Z,23.90
2018-07-12T11:23:20.233Z,23.80
2018-07-12T11:25:47.773Z,23.80
2018-07-12T11:28:15.385Z,23.90
2018-07-12T11:30:43.027Z,23.90
2018-07-12T11:33:22.137Z,24.00
2018-07-12T11:35:49.734Z,23.90
2018-07-12T11:38:17.299Z,24.10
2018-07-12T11:40:44.969Z,24.10
2018-07-12T11:45:40.042Z,24.10
2018-07-12T11:48:07.617Z,24.10
2018-07-12T11:50:35.148Z,24.10
2018-07-12T11:53:02.750Z,24.00
2018-07-12T11:55:30.328Z,24.10
2018-07-12T12:00:25.446Z,24.10
2018-07-12T12:05:20.730Z,24.30
2018-07-12T12:07:48.290Z,24.40
2018-07-12T12:10:15.893Z,24.60
2018-07-12T12:12:43.435Z,24.60
2018-07-12T12:17:38.614Z,24.60
2018-07-12T12:20:06.169Z,24.60
2018-07-12T12:22:33.753Z,24.80
2018-07-12T12:25:01.314Z,24.70
2018-07-12T12:27:28.901Z,24.60
2018-07-12T12:29:56.513Z,24.70
2018-07-12T12:32:24.099Z,24.60
2018-07-12T12:34:51.665Z,24.80
2018-07-12T12:37:19.386Z,25.10
2018-07-12T12:39:46.949Z,25.20
2018-07-12T12:42:14.546Z,25.30
2018-07-12T12:47:09.691Z,25.10
2018-07-12T12:49:37.322Z,25.30
2018-07-12T12:52:05.010Z,25.30
2018-07-12T12:54:32.567Z,25.50
2018-07-12T12:59:27.674Z,25.40
2018-07-12T13:01:55.288Z,25.20
2018-07-12T13:04:22.830Z,25.30
2018-07-12T13:06:50.461Z,25.30
2018-07-12T13:11:45.548Z,25.30
2018-07-12T13:14:13.285Z,25.30
2018-07-12T13:16:40.808Z,25.10
2018-07-12T13:19:08.425Z,25.00
2018-07-12T13:21:35.962Z,24.90
2018-07-12T13:24:03.605Z,24.90
2018-07-12T13:26:31.138Z,24.80
2018-07-12T13:31:26.294Z,25.00
2018-07-12T13:33:53.875Z,25.20
2018-07-12T13:36:21.476Z,25.30
2018-07-12T13:38:49.076Z,25.30
2018-07-12T13:41:16.672Z,25.30
2018-07-12T13:43:44.205Z,25.30
2018-07-12T13:46:11.811Z,25.50
2018-07-12T13:48:39.361Z,25.70
2018-07-12T13:51:06.993Z,25.90
2018-07-12T13:53:34.656Z,25.90
2018-07-12T13:56:02.180Z,25.90
2018-07-12T13:58:29.821Z,26.00
2018-07-12T14:00:57.397Z,25.90
2018-07-12T14:03:24.999Z,26.00
2018-07-12T14:05:52.543Z,26.00
2018-07-12T14:08:20.315Z,26.10
2018-07-12T14:10:47.909Z,26.10
2018-07-12T14:15:43.038Z,26.00
2018-07-12T14:18:10.568Z,26.20
2018-07-12T14:20:38.157Z,26.50
2018-07-12T14:23:05.789Z,26.80
2018-07-12T14:28:00.916Z,26.60
2018-07-12T14:30:28.491Z,26.60
2018-07-12T14:35:23.572Z,26.80
2018-07-12T14:37:51.243Z,27.10
2018-07-12T14:40:18.989Z,27.20
2018-07-12T14:42:46.558Z,27.30
2018-07-12T14:45:14.170Z,26.80
2018-07-12T14:47:41.750Z,26.50
2018-07-12T14:50:09.347Z,26.40
2018-07-12T14:52:36.966Z,26.80
2018-07-12T14:55:04.501Z,27.30
2018-07-12T14:57:32.208Z,27.40
2018-07-12T14:59:59.728Z,27.50
2018-07-12T15:02:27.428Z,27.50
2018-07-12T15:04:54.961Z,27.00
2018-07-12T15:07:22.548Z,26.60
2018-07-12T15:09:50.223Z,26.50
2018-07-12T15:14:45.363Z,26.20
2018-07-12T15:17:12.986Z,27.00
2018-07-12T15:19:40.510Z,27.40
2018-07-12T15:22:08.206Z,28.70
2018-07-12T15:24:35.743Z,29.50
2018-07-12T15:27:03.373Z,29.90
2018-07-12T15:29:30.981Z,29.90
2018-07-12T15:31:58.477Z,30.40
2018-07-12T15:34:26.050Z,30.80
2018-07-12T15:39:21.245Z,30.70
2018-07-12T15:41:48.775Z,30.70
2018-07-12T15:44:16.381Z,31.20
2018-07-12T15:49:11.634Z,32.00
2018-07-12T15:51:39.187Z,32.40
2018-07-12T15:54:06.744Z,32.50
2018-07-12T15:56:34.340Z,33.20
2018-07-12T15:59:02.023Z,33.50
2018-07-12T16:01:29.658Z,33.50
2018-07-12T16:03:57.238Z,32.80
2018-07-12T16:06:24.813Z,33.00
2018-07-12T16:11:20.095Z,33.00
2018-07-12T16:13:47.976Z,32.80
2018-07-12T16:16:15.930Z,32.50
2018-07-12T16:18:44.960Z,31.80
2018-07-12T16:21:12.855Z,31.80
2018-07-12T16:23:40.469Z,31.90
2018-07-12T16:26:08.106Z,31.50
2018-07-12T16:28:35.696Z,31.20
2018-07-12T16:33:30.841Z,31.40
2018-07-12T16:38:26.250Z,31.90
2018-07-12T16:43:21.550Z,32.00
2018-07-12T16:45:49.097Z,32.00
2018-07-12T16:48:16.692Z,32.40
2018-07-12T16:50:45.238Z,32.60
2018-07-12T16:53:13.018Z,32.60
2018-07-12T16:55:40.548Z,32.60
2018-07-12T16:58:08.092Z,32.40
2018-07-12T17:00:35.754Z,31.50
2018-07-12T17:03:03.319Z,31.40
2018-07-12T17:05:30.918Z,31.30
2018-07-12T17:07:58.474Z,30.70
2018-07-12T17:10:26.056Z,30.80
2018-07-12T17:15:21.254Z,30.70
2018-07-12T17:17:48.860Z,30.70
2018-07-12T17:20:18.608Z,30.90
2018-07-12T17:22:46.232Z,31.20
2018-07-12T17:25:13.819Z,31.30
2018-07-12T17:27:41.591Z,31.70
2018-07-12T17:30:12.275Z,31.90
2018-07-12T17:32:39.838Z,32.10
2018-07-12T17:35:07.442Z,32.20
2018-07-12T17:37:34.973Z,32.40
2018-07-12T17:40:02.564Z,32.50
2018-07-12T17:42:30.204Z,32.50
2018-07-12T17:44:57.753Z,33.10
2018-07-12T17:47:25.350Z,33.00
2018-07-12T17:49:53.006Z,33.00
2018-07-12T17:52:20.613Z,32.70
2018-07-12T17:54:48.172Z,32.40
2018-07-12T17:57:15.750Z,32.40
2018-07-12T17:59:43.334Z,32.10
2018-07-12T18:02:10.915Z,31.60
2018-07-12T18:04:38.553Z,31.20
2018-07-12T18:07:06.154Z,31.40
2018-07-12T18:09:33.712Z,30.90
2018-07-12T18:12:01.317Z,30.50
2018-07-12T18:14:28.881Z,30.40
2018-07-12T18:16:56.452Z,30.40
2018-07-12T18:19:24.486Z,30.80
2018-07-12T18:21:52.118Z,30.30
2018-07-12T18:24:19.622Z,29.50
2018-07-12T18:26:47.229Z,28.80
2018-07-12T18:29:14.784Z,28.00
2018-07-12T18:31:42.300Z,27.40
2018-07-12T18:34:09.873Z,26.80
2018-07-12T18:36:37.406Z,27.30
2018-07-12T18:39:06.684Z,26.60
2018-07-12T18:41:34.262Z,26.30
2018-07-12T18:44:01.832Z,25.90
2018-07-12T18:46:29.429Z,25.70
2018-07-12T18:48:57.094Z,25.40
2018-07-12T18:53:52.291Z,24.90
2018-07-12T18:56:19.862Z,25.00
2018-07-12T18:58:47.521Z,24.70
2018-07-12T19:01:15.051Z,24.40
2018-07-12T19:03:42.668Z,24.40
2018-07-12T19:08:37.789Z,23.90
2018-07-12T19:11:05.373Z,23.80
2018-07-12T19:13:32.966Z,23.70
2018-07-12T19:16:00.509Z,23.70
2018-07-12T19:18:28.354Z,23.70
2018-07-12T19:20:55.954Z,23.50
2018-07-12T19:23:23.569Z,23.60
2018-07-12T19:25:51.120Z,23.40
2018-07-12T19:28:18.694Z,23.60
2018-07-12T19:30:46.249Z,23.70
2018-07-12T19:33:13.833Z,23.60
2018-07-12T19:35:41.370Z,23.60
2018-07-12T19:38:08.955Z,23.50
2018-07-12T19:40:36.505Z,23.60
2018-07-12T19:43:04.122Z,23.30
2018-07-12T19:50:26.792Z,23.30
2018-07-12T19:52:54.405Z,23.20
2018-07-12T19:55:21.967Z,22.90
2018-07-12T19:57:49.641Z,22.80
2018-07-12T20:00:17.372Z,22.50
2018-07-12T20:02:44.937Z,22.20
2018-07-12T20:05:12.470Z,21.90
2018-07-12T20:07:40.182Z,22.10
2018-07-12T20:10:07.817Z,22.50
2018-07-12T20:12:35.417Z,22.30
2018-07-12T20:15:03.091Z,22.80
2018-07-12T20:17:30.743Z,23.10
2018-07-12T20:19:58.349Z,22.70
2018-07-12T20:22:25.908Z,22.80
2018-07-12T20:24:53.501Z,22.70
2018-07-12T20:27:21.035Z,22.60
2018-07-12T20:29:48.632Z,22.50
2018-07-12T20:32:16.491Z,22.60
2018-07-12T20:34:44.036Z,22.40
2018-07-12T20:37:11.747Z,22.20
2018-07-12T20:42:11.469Z,22.20
2018-07-12T20:47:06.655Z,22.20
2018-07-12T20:49:34.250Z,22.40
2018-07-12T20:52:01.899Z,22.20
2018-07-12T20:59:24.757Z,22.00
2018-07-12T21:01:52.437Z,22.00
2018-07-12T21:04:19.991Z,21.70
2018-07-12T21:06:47.526Z,21.80
2018-07-12T21:09:15.119Z,22.30
2018-07-12T21:11:42.653Z,22.20
2018-07-12T21:14:10.236Z,22.20
2018-07-12T21:16:37.842Z,21.40
2018-07-12T21:19:05.584Z,21.60
2018-07-12T21:21:33.125Z,21.20
2018-07-12T21:26:28.416Z,21.80
2018-07-12T21:28:55.965Z,21.80
2018-07-12T21:31:23.495Z,21.40
2018-07-12T21:33:51.109Z,21.20
2018-07-12T21:36:18.699Z,21.20
2018-07-12T21:38:46.243Z,21.10
2018-07-12T21:41:13.818Z,20.90
2018-07-12T21:43:41.431Z,20.90
2018-07-12T21:46:09.006Z,20.90
2018-07-12T21:48:36.589Z,21.00
2018-07-12T21:53:31.732Z,20.40
2018-07-12T21:55:59.289Z,20.70
2018-07-12T21:58:26.851Z,20.80
2018-07-12T22:00:54.447Z,21.10
2018-07-12T22:03:22.026Z,20.80
2018-07-12T22:08:22.141Z,20.70
2018-07-12T22:10:51.131Z,20.50
2018-07-12T22:13:19.348Z,20.50
2018-07-12T22:18:14.508Z,19.90
2018-07-12T22:20:42.116Z,20.30
2018-07-12T22:23:09.702Z,20.30
2018-07-12T22:25:37.564Z,20.50
2018-07-12T22:28:05.272Z,20.10
2018-07-12T22:30:32.873Z,20.40
2018-07-12T22:33:01.612Z,20.20
2018-07-12T22:35:29.141Z,20.30
2018-07-12T22:37:57.801Z,20.20
2018-07-12T22:47:48.303Z,20.00
2018-07-12T22:50:16.213Z,19.60
2018-07-12T22:52:43.829Z,19.80
2018-07-12T22:55:13.369Z,19.70
2018-07-12T23:02:38.737Z,19.30
2018-07-12T23:05:06.649Z,19.20
2018-07-12T23:07:34.265Z,19.10
2018-07-12T23:10:01.857Z,19.60
2018-07-12T23:12:29.510Z,19.70
2018-07-12T23:14:57.076Z,19.80
2018-07-12T23:17:24.673Z,19.70
2018-07-12T23:22:20.279Z,19.30
2018-07-12T23:24:47.974Z,19.40
2018-07-12T23:27:15.529Z,19.50
2018-07-12T23:32:10.598Z,19.10
2018-07-12T23:34:38.246Z,18.60
2018-07-12T23:37:05.897Z,18.50
2018-07-12T23:39:33.609Z,18.70
2018-07-12T23:42:01.255Z,18.90
2018-07-12T23:44:28.804Z,18.90
2018-07-12T23:46:56.397Z,18.60
2018-07-12T23:51:51.530Z,18.90
2018-07-12T23:56:46.715Z,18.50
2018-07-12T23:59:14.578Z,18.40
